Time;durP1;ratioP1;P1;durP2;ratioP2;P2;SDS_P1;SDS_P2;PMS_P1;PMS_P2;Temp;Humidity;BMP_temperature;BMP_pressure;BME280_temperature;BME280_humidity;BME280_pressure;Samples;Min_cycle;Max_cycle;Signal;HPM_P1;HPM_P2
2023/03/18 00:02:23;;;;;;;15.18;12.65;;;;;;;;;;5048856;28;20032;-63
2023/03/18 00:04:50;;;;;;;18.20;13.80;;;;;;;;;;5030370;28;20036;-63
2023/03/18 00:07:16;;;;;;;19.45;13.57;;;;;;;;;;5048746;28;20195;-63
2023/03/18 00:09:42;;;;;;;19.92;13.63;;;;;;;;;;5049047;28;20135;-63
2023/03/18 00:12:09;;;;;;;17.95;12.85;;;;;;;;;;5048076;28;20079;-63
2023/03/18 00:14:36;;;;;;;17.58;13.80;;;;;;;;;;5046318;28;20591;-63
2023/03/18 00:17:03;;;;;;;18.77;14.85;;;;;;;;;;5029463;28;20353;-63
2023/03/18 00:19:29;;;;;;;19.25;15.13;;;;;;;;;;5020021;28;20511;-62
2023/03/18 00:21:56;;;;;;;17.73;13.70;;;;;;;;;;5046239;28;20436;-64
2023/03/18 00:24:22;;;;;;;17.92;14.93;;;;;;;;;;5038476;28;20049;-64
2023/03/18 00:26:48;;;;;;;20.10;14.70;;;;;;;;;;5036414;28;20040;-63
2023/03/18 00:29:14;;;;;;;21.05;14.70;;;;;;;;;;5043663;28;20376;-64
2023/03/18 00:31:41;;;;;;;22.15;14.10;;;;;;;;;;5048466;28;20091;-64
2023/03/18 00:34:07;;;;;;;18.83;14.50;;;;;;;;;;5030559;28;20116;-64
2023/03/18 00:36:33;;;;;;;17.60;13.65;;;;;;;;;;5049863;28;20081;-64
2023/03/18 00:39:02;;;;;;;19.50;13.88;;;;;;;;;;5056257;28;20088;-64
2023/03/18 00:41:29;;;;;;;20.60;13.50;;;;;;;;;;5029775;28;20196;-64
2023/03/18 00:43:55;;;;;;;16.60;12.43;;;;;;;;;;5029563;28;20140;-64
2023/03/18 00:46:28;;;;;;;18.73;13.13;;;11.50;99.90;;;;;;5048022;28;20474;-64
2023/03/18 00:48:57;;;;;;;19.70;14.88;;;10.80;99.90;;;;;;5026045;28;20045;-64
2023/03/18 00:51:25;;;;;;;22.88;13.02;;;10.70;99.90;;;;;;5030463;28;20052;-64
2023/03/18 00:53:57;;;;;;;19.13;14.70;;;10.70;99.90;;;;;;5044591;28;20083;-64
2023/03/18 00:56:26;;;;;;;19.65;14.90;;;10.70;99.90;;;;;;5046785;28;20040;-64
2023/03/18 00:58:53;;;;;;;20.48;14.68;;;10.60;99.90;;;;;;5032010;28;20529;-64
2023/03/18 01:01:20;;;;;;;21.50;15.02;;;10.60;99.90;;;;;;5047696;28;20041;-64
2023/03/18 01:03:48;;;;;;;18.45;14.25;;;10.60;99.90;;;;;;5048104;28;20072;-64
2023/03/18 01:06:17;;;;;;;20.83;15.55;;;10.60;99.90;;;;;;5043685;28;20371;-64
2023/03/18 01:08:43;;;;;;;17.30;15.30;;;10.60;99.90;;;;;;5051101;28;20186;-64
2023/03/18 01:11:10;;;;;;;22.08;16.27;;;10.60;99.90;;;;;;5048593;28;20099;-63
2023/03/18 01:13:36;;;;;;;23.63;16.63;;;10.50;99.90;;;;;;5023076;28;20037;-64
2023/03/18 01:16:04;;;;;;;19.58;15.85;;;10.50;99.90;;;;;;5045306;28;20044;-68
2023/03/18 01:18:29;;;;;;;23.67;17.23;;;10.50;99.90;;;;;;5044209;28;20487;-64
2023/03/18 01:20:56;;;;;;;23.05;17.13;;;10.50;99.90;;;;;;5021540;28;20037;-63
2023/03/18 01:23:23;;;;;;;25.60;17.63;;;10.40;99.90;;;;;;5013039;28;20102;-64
2023/03/18 01:25:49;;;;;;;27.48;18.42;;;10.30;99.90;;;;;;5047218;28;20040;-64
2023/03/18 01:28:16;;;;;;;26.38;18.83;;;10.40;99.90;;;;;;5012417;28;20037;-62
2023/03/18 01:30:41;;;;;;;21.30;17.75;;;10.30;99.90;;;;;;5045219;28;20694;-62
2023/03/18 01:33:08;;;;;;;25.95;18.35;;;10.30;99.90;;;;;;5009219;28;20040;-62
2023/03/18 01:35:35;;;;;;;22.67;18.27;;;10.20;99.90;;;;;;5045274;28;20054;-62
2023/03/18 01:38:04;;;;;;;25.50;18.95;;;10.20;99.90;;;;;;5023617;28;20506;-62
2023/03/18 01:40:32;;;;;;;24.83;18.60;;;10.10;99.90;;;;;;5021944;28;20040;-62
2023/03/18 01:43:11;;;;;;;25.90;19.30;;;10.10;99.90;;;;;;5047199;28;20052;-63
2023/03/18 01:45:37;;;;;;;24.60;18.27;;;;;;;;;;5046671;28;20491;-63
2023/03/18 01:48:03;;;;;;;21.45;17.60;;;;;;;;;;5038604;28;20144;-63
2023/03/18 01:50:31;;;;;;;20.85;17.85;;;;;;;;;;5047192;28;20028;-63
2023/03/18 01:53:00;;;;;;;23.85;19.38;;;;;;;;;;5047422;28;20040;-63
2023/03/18 01:55:30;;;;;;;20.73;17.50;;;10.10;99.90;;;;;;5048494;28;20068;-63
2023/03/18 01:57:56;;;;;;;24.75;19.50;;;;;;;;;;5021390;28;20033;-63
2023/03/18 02:00:23;;;;;;;27.08;18.77;;;;;;;;;;5008301;28;20276;-63
2023/03/18 02:02:51;;;;;;;26.98;18.98;;;9.90;99.90;;;;;;5042334;28;20098;-63
2023/03/18 02:05:20;;;;;;;26.80;19.25;;;9.70;99.90;;;;;;5044827;28;20592;-63
2023/03/18 02:07:46;;;;;;;23.50;19.10;;;9.70;99.90;;;;;;5045064;28;20483;-63
2023/03/18 02:10:23;;;;;;;24.25;18.65;;;9.60;99.90;;;;;;5022673;28;20068;-63
2023/03/18 02:12:57;;;;;;;25.63;20.13;;;9.60;99.90;;;;;;5047394;28;20037;-63
2023/03/18 02:15:26;;;;;;;27.00;19.80;;;;;;;;;;5022431;28;20139;-64
2023/03/18 02:18:06;;;;;;;25.10;20.65;;;9.50;99.90;;;;;;5040531;28;20095;-63
2023/03/18 02:20:44;;;;;;;26.15;19.55;;;9.50;99.90;;;;;;5035134;28;20137;-63
2023/03/18 02:23:28;;;;;;;26.35;21.00;;;9.40;99.90;;;;;;5021616;28;20177;-63
2023/03/18 02:26:08;;;;;;;27.42;19.27;;;9.40;99.90;;;;;;5024653;28;20045;-63
2023/03/18 02:28:36;;;;;;;28.35;20.73;;;9.40;99.90;;;;;;5022887;28;20490;-63
2023/03/18 02:31:08;;;;;;;27.10;22.20;;;9.30;99.90;;;;;;5025672;28;20064;-63
2023/03/18 02:33:37;;;;;;;24.40;20.30;;;9.30;99.90;;;;;;5023656;28;20457;-63
2023/03/18 02:36:08;;;;;;;30.58;22.92;;;9.30;99.90;;;;;;5019710;28;20110;-64
2023/03/18 02:38:34;;;;;;;29.42;22.52;;;9.30;99.90;;;;;;5018634;28;20095;-63
2023/03/18 02:41:00;;;;;;;30.70;22.05;;;9.20;99.90;;;;;;5048518;28;20029;-63
2023/03/18 02:43:29;;;;;;;31.98;21.30;;;9.20;99.90;;;;;;5048039;28;20052;-67
2023/03/18 02:46:25;;;;;;;29.80;21.25;;;9.20;99.90;;;;;;5040087;28;20055;-67
2023/03/18 02:48:52;;;;;;;27.40;21.23;;;9.20;99.90;;;;;;5036988;28;20440;-68
2023/03/18 02:51:19;;;;;;;29.98;21.83;;;9.10;99.90;;;;;;5030011;28;20044;-68
2023/03/18 02:53:46;;;;;;;25.83;21.25;;;9.10;99.90;;;;;;5048305;28;20037;-67
2023/03/18 02:56:13;;;;;;;25.58;21.10;;;9.10;99.90;;;;;;5048109;28;20172;-68
2023/03/18 02:58:39;;;;;;;30.65;21.80;;;9.00;99.90;;;;;;5048399;28;20041;-68
2023/03/18 03:01:06;;;;;;;32.05;22.88;;;;;;;;;;5013723;28;20132;-67
2023/03/18 03:03:33;;;;;;;25.17;21.05;;;;;;;;;;5048939;28;20139;-68
2023/03/18 03:06:00;;;;;;;29.52;22.50;;;;;;;;;;5038083;28;20158;-67
2023/03/18 03:08:26;;;;;;;29.90;23.08;;;;;;;;;;5048177;28;20049;-68
2023/03/18 03:10:52;;;;;;;34.65;22.60;;;;;;;;;;5043544;28;20045;-68
2023/03/18 03:13:20;;;;;;;28.52;21.90;;;;;;;;;;5040585;28;20574;-68
2023/03/18 03:15:46;;;;;;;36.38;23.35;;;9.00;99.90;;;;;;5048214;28;20057;-68
2023/03/18 03:18:12;;;;;;;29.40;23.80;;;8.70;99.90;;;;;;5033701;28;20507;-67
2023/03/18 03:20:38;;;;;;;33.70;23.95;;;;;;;;;;5033892;28;20087;-67
2023/03/18 03:23:06;;;;;;;28.70;23.70;;;;;;;;;;5051607;28;20124;-68
2023/03/18 03:25:32;;;;;;;32.28;24.45;;;;;;;;;;5019452;28;20386;-68
2023/03/18 03:27:59;;;;;;;33.45;24.80;;;;;;;;;;5051904;28;20045;-68
2023/03/18 03:30:25;;;;;;;33.65;25.70;;;;;;;;;;5051513;28;20062;-68
2023/03/18 03:32:52;;;;;;;37.03;27.05;;;;;;;;;;5052341;28;20538;-68
2023/03/18 03:35:18;;;;;;;35.83;24.70;;;;;;;;;;5050886;28;20103;-67
2023/03/18 03:37:45;;;;;;;32.63;24.23;;;;;;;;;;5046211;28;20411;-67
2023/03/18 03:40:14;;;;;;;34.80;26.30;;;;;;;;;;5025272;28;20065;-68
2023/03/18 03:42:40;;;;;;;33.08;26.08;;;;;;;;;;5051452;28;20060;-67
2023/03/18 03:45:07;;;;;;;31.55;26.33;;;;;;;;;;5051473;28;20478;-68
2023/03/18 03:47:33;;;;;;;34.83;24.88;;;;;;;;;;5033182;28;20056;-68
2023/03/18 03:49:59;;;;;;;36.20;25.33;;;8.70;99.90;;;;;;5050741;28;20063;-68
2023/03/18 03:52:25;;;;;;;36.00;26.80;;;;;;;;;;5050919;28;20429;-68
2023/03/18 03:54:52;;;;;;;38.03;25.33;;;;;;;;;;5050616;28;20048;-67
2023/03/18 03:57:18;;;;;;;37.28;26.50;;;;;;;;;;5051205;28;20430;-68
2023/03/18 03:59:44;;;;;;;34.47;25.08;;;;;;;;;;5051229;28;20064;-68
2023/03/18 04:02:10;;;;;;;40.17;26.40;;;;;;;;;;5050574;28;20147;-67
2023/03/18 04:04:36;;;;;;;38.50;28.08;;;;;;;;;;5051205;28;20144;-68
2023/03/18 04:07:03;;;;;;;38.25;26.13;;;;;;;;;;5038165;28;20563;-67
2023/03/18 04:09:29;;;;;;;34.38;25.45;;;;;;;;;;5050733;28;20086;-67
2023/03/18 04:11:55;;;;;;;32.95;26.08;;;;;;;;;;5051161;28;20036;-68
2023/03/18 04:14:22;;;;;;;34.00;24.25;;;;;;;;;;5054302;28;20048;-67
2023/03/18 04:16:48;;;;;;;30.38;23.17;;;;;;;;;;5050944;28;20082;-67
2023/03/18 04:19:15;;;;;;;29.92;23.25;;;;;;;;;;5050467;28;20067;-68
2023/03/18 04:21:41;;;;;;;35.55;25.08;;;;;;;;;;5050654;28;20049;-68
2023/03/18 04:24:07;;;;;;;36.25;24.98;;;8.40;99.90;;;;;;5050020;28;20040;-69
2023/03/18 04:26:33;;;;;;;30.10;22.38;;;8.20;99.90;;;;;;5049578;28;20128;-68
2023/03/18 04:28:59;;;;;;;33.97;23.80;;;8.10;99.90;;;;;;5050524;28;20037;-68
2023/03/18 04:31:25;;;;;;;37.58;24.88;;;8.10;99.90;;;;;;5050245;28;20029;-68
2023/03/18 04:33:51;;;;;;;32.92;24.15;;;8.10;99.90;;;;;;5050481;28;20098;-69
2023/03/18 04:36:17;;;;;;;35.85;23.73;;;8.10;99.90;;;;;;5032897;28;20045;-68
2023/03/18 04:38:43;;;;;;;37.72;24.20;;;8.10;99.90;;;;;;5050399;28;20092;-68
2023/03/18 04:41:09;;;;;;;31.52;23.42;;;;;;;;;;5051629;28;20063;-68
2023/03/18 04:43:36;;;;;;;32.85;23.88;;;;;;;;;;5050591;28;20046;-68
2023/03/18 04:46:02;;;;;;;41.40;25.85;;;;;;;;;;5039517;28;20097;-68
2023/03/18 04:48:29;;;;;;;42.55;25.90;;;;;;;;;;5050307;28;20521;-68
2023/03/18 04:50:55;;;;;;;40.95;26.08;;;;;;;;;;5050434;28;20036;-68
2023/03/18 04:53:21;;;;;;;46.25;25.90;;;;;;;;;;5050700;28;20040;-68
2023/03/18 04:55:49;;;;;;;41.10;27.17;;;;;;;;;;5048837;28;20037;-68
2023/03/18 04:58:16;;;;;;;54.78;29.65;;;;;;;;;;5050069;28;20537;-68
2023/03/18 05:00:42;;;;;;;43.15;26.90;;;;;;;;;;5032664;28;20045;-68
2023/03/18 05:03:09;;;;;;;49.75;28.70;;;;;;;;;;5047693;28;20571;-68
2023/03/18 05:05:35;;;;;;;69.03;30.70;;;;;;;;;;5032267;28;20102;-68
2023/03/18 05:08:01;;;;;;;45.33;26.02;;;;;;;;;;5049750;28;20037;-69
2023/03/18 05:10:27;;;;;;;49.53;28.27;;;;;;;;;;5050057;28;20033;-69
2023/03/18 05:12:54;;;;;;;46.35;28.08;;;8.10;99.90;;;;;;5040945;28;20040;-68
2023/03/18 05:15:19;;;;;;;36.10;23.50;;;8.40;99.90;;;;;;5028298;28;20057;-68
2023/03/18 05:17:46;;;;;;;56.88;23.50;;;8.40;99.90;;;;;;5028871;28;20045;-68
2023/03/18 05:20:13;;;;;;;49.38;22.73;;;8.40;99.90;;;;;;5047090;28;20033;-68
2023/03/18 05:22:39;;;;;;;61.63;22.83;;;8.40;99.90;;;;;;5049950;28;20049;-68
2023/03/18 05:25:06;;;;;;;40.58;20.65;;;8.40;99.90;;;;;;5012112;28;20068;-69
2023/03/18 05:27:32;;;;;;;43.08;21.08;;;8.40;99.90;;;;;;5042229;28;20037;-68
2023/03/18 05:29:57;;;;;;;57.08;23.75;;;8.40;99.90;;;;;;5049194;28;20036;-68
2023/03/18 05:32:24;;;;;;;96.15;27.75;;;8.50;99.90;;;;;;5049877;28;20374;-68
2023/03/18 05:34:50;;;;;;;77.93;24.58;;;8.40;99.90;;;;;;5049383;28;20040;-68
2023/03/18 05:37:16;;;;;;;49.83;22.92;;;8.40;99.90;;;;;;5040516;28;20394;-68
2023/03/18 05:39:41;;;;;;;68.97;23.50;;;8.40;99.90;;;;;;5047694;28;20076;-69
2023/03/18 05:42:08;;;;;;;43.45;22.92;;;8.40;99.90;;;;;;5004688;28;20535;-68
2023/03/18 05:44:34;;;;;;;71.38;25.35;;;8.40;99.90;;;;;;5038433;28;20057;-68
2023/03/18 05:47:00;;;;;;;77.03;25.65;;;;;;;;;;5049383;28;20048;-68
2023/03/18 05:49:26;;;;;;;74.35;27.90;;;;;;;;;;5018981;28;20103;-68
2023/03/18 05:51:53;;;;;;;67.35;26.25;;;;;;;;;;5042403;28;20125;-68
2023/03/18 05:54:19;;;;;;;60.90;25.58;;;;;;;;;;5048058;28;20530;-68
2023/03/18 05:56:45;;;;;;;61.80;26.27;;;;;;;;;;5041002;28;20037;-68
2023/03/18 05:59:13;;;;;;;99.15;30.05;;;;;;;;;;5047550;28;20168;-68
2023/03/18 06:01:40;;;;;;;53.40;29.10;;;;;;;;;;5041171;28;20080;-69
2023/03/18 06:04:07;;;;;;;48.65;26.77;;;;;;;;;;5014927;28;20098;-68
2023/03/18 06:06:36;;;;;;;53.05;28.05;;;;;;;;;;5046794;28;20044;-68
2023/03/18 06:09:02;;;;;;;51.80;28.27;;;;;;;;;;5048292;28;20076;-68
2023/03/18 06:11:29;;;;;;;86.90;28.90;;;;;;;;;;5048554;28;20049;-68
2023/03/18 06:13:55;;;;;;;69.10;31.65;;;;;;;;;;5048596;28;20428;-68
2023/03/18 06:16:22;;;;;;;66.90;32.40;;;;;;;;;;5041436;28;20561;-68
2023/03/18 06:18:48;;;;;;;50.90;29.38;;;;;;;;;;5048562;28;20367;-68
2023/03/18 06:21:15;;;;;;;64.78;32.03;;;;;;;;;;5048411;28;20505;-68
2023/03/18 06:23:41;;;;;;;55.65;33.65;;;;;;;;;;5054756;28;20048;-67
2023/03/18 06:26:07;;;;;;;51.80;29.75;;;;;;;;;;5036017;28;20143;-68
2023/03/18 06:28:34;;;;;;;51.47;30.88;;;;;;;;;;5048502;28;20076;-68
2023/03/18 06:31:00;;;;;;;52.85;31.05;;;;;;;;;;5045396;28;20040;-69
2023/03/18 06:33:26;;;;;;;52.00;30.77;;;;;;;;;;5049179;28;20041;-69
2023/03/18 06:35:56;;;;;;;53.08;31.83;;;;;;;;;;5049049;28;20037;-68
2023/03/18 06:38:22;;;;;;;46.10;28.83;;;;;;;;;;5049247;28;20114;-68
2023/03/18 06:40:49;;;;;;;45.72;30.73;;;;;;;;;;5049247;28;20045;-67
2023/03/18 06:43:15;;;;;;;47.92;30.83;;;;;;;;;;5030588;28;20041;-68
2023/03/18 06:45:41;;;;;;;52.50;30.17;;;;;;;;;;5056013;28;20052;-68
2023/03/18 06:48:10;;;;;;;52.10;33.53;;;;;;;;;;5048583;28;20037;-67
2023/03/18 06:50:38;;;;;;;46.80;29.88;;;;;;;;;;5052410;28;20530;-68
2023/03/18 06:53:04;;;;;;;44.63;29.90;;;;;;;;;;5034914;28;20491;-67
2023/03/18 06:55:31;;;;;;;47.53;30.20;;;;;;;;;;5052193;28;20149;-67
2023/03/18 06:57:57;;;;;;;50.60;32.80;;;;;;;;;;5052083;28;20459;-68
2023/03/18 07:00:24;;;;;;;49.70;29.88;;;;;;;;;;5048965;28;20480;-67
2023/03/18 07:02:51;;;;;;;45.90;29.85;;;;;;;;;;5050610;28;20495;-67
2023/03/18 07:05:17;;;;;;;47.10;30.50;;;;;;;;;;5048455;28;20119;-67
2023/03/18 07:07:44;;;;;;;45.15;29.60;;;;;;;;;;5027779;28;20433;-68
2023/03/18 07:10:17;;;;;;;41.63;27.90;;;;;;;;;;5049235;28;20219;-68
2023/03/18 07:12:43;;;;;;;39.65;29.10;;;;;;;;;;5060018;28;20095;-67
2023/03/18 07:15:10;;;;;;;46.70;30.10;;;;;;;;;;5050052;28;20498;-68
2023/03/18 07:17:37;;;;;;;43.72;28.70;;;;;;;;;;5052605;28;20095;-67
2023/03/18 07:20:04;;;;;;;45.10;32.35;;;;;;;;;;5052171;28;20084;-68
2023/03/18 07:22:30;;;;;;;47.53;31.55;;;;;;;;;;5052984;28;20041;-67
2023/03/18 07:24:56;;;;;;;47.50;31.63;;;;;;;;;;5034284;28;20045;-67
2023/03/18 07:27:23;;;;;;;42.97;29.17;;;;;;;;;;5041571;28;20053;-67
2023/03/18 07:29:49;;;;;;;47.95;32.22;;;;;;;;;;5052670;28;20102;-67
2023/03/18 07:32:17;;;;;;;41.35;30.08;;;;;;;;;;5036368;28;20135;-67
2023/03/18 07:34:46;;;;;;;47.65;33.30;;;;;;;;;;5052163;28;20437;-67
2023/03/18 07:37:13;;;;;;;44.70;33.92;;;;;;;;;;5043378;28;20115;-67
2023/03/18 07:39:39;;;;;;;43.55;31.73;;;;;;;;;;5048411;28;20044;-67
2023/03/18 07:42:05;;;;;;;49.80;34.35;;;;;;;;;;5047786;28;20037;-67
2023/03/18 07:44:31;;;;;;;49.83;32.42;;;;;;;;;;5052838;28;20489;-67
2023/03/18 07:46:58;;;;;;;45.55;32.60;;;;;;;;;;5040729;28;20033;-68
2023/03/18 07:49:24;;;;;;;38.83;31.20;;;;;;;;;;5027664;28;20381;-67
2023/03/18 07:51:51;;;;;;;48.88;33.45;;;;;;;;;;5050675;28;20059;-67
2023/03/18 07:54:17;;;;;;;44.60;32.15;;;;;;;;;;5050266;28;20080;-68
2023/03/18 07:56:43;;;;;;;42.55;30.08;;;;;;;;;;5016176;28;20040;-67
2023/03/18 07:59:09;;;;;;;44.03;29.88;;;;;;;;;;5051306;28;20047;-67
2023/03/18 08:01:36;;;;;;;42.65;31.05;;;;;;;;;;5049857;28;20041;-67
2023/03/18 08:04:03;;;;;;;42.55;31.45;;;;;;;;;;5051219;28;20483;-68
2023/03/18 08:06:29;;;;;;;41.60;31.05;;;;;;;;;;5057011;28;20110;-67
2023/03/18 08:08:55;;;;;;;41.95;30.70;;;;;;;;;;5055998;28;20116;-68
2023/03/18 08:11:21;;;;;;;42.28;29.27;;;;;;;;;;5050525;28;20040;-67
2023/03/18 08:13:47;;;;;;;43.78;29.70;;;;;;;;;;5051766;28;20045;-68
2023/03/18 08:16:14;;;;;;;45.03;31.85;;;;;;;;;;5037276;28;20045;-67
2023/03/18 08:18:40;;;;;;;43.40;31.42;;;;;;;;;;5031430;28;20068;-68
2023/03/18 08:21:08;;;;;;;44.80;30.20;;;;;;;;;;5037668;28;20063;-68
2023/03/18 08:23:34;;;;;;;44.78;31.15;;;;;;;;;;5057957;28;20107;-68
2023/03/18 08:26:01;;;;;;;42.17;30.15;;;;;;;;;;5050005;28;20044;-68
2023/03/18 08:28:28;;;;;;;42.28;31.80;;;;;;;;;;5050641;28;20049;-68
2023/03/18 08:30:55;;;;;;;40.75;31.13;;;;;;;;;;5057505;28;20073;-68
2023/03/18 08:33:22;;;;;;;38.05;30.33;;;;;;;;;;5035714;28;20037;-67
2023/03/18 08:35:49;;;;;;;41.72;30.75;;;;;;;;;;5032722;28;20037;-67
2023/03/18 08:38:15;;;;;;;41.80;30.83;;;;;;;;;;5016610;28;20037;-67
2023/03/18 08:40:41;;;;;;;38.47;29.38;;;;;;;;;;5049659;28;20044;-67
2023/03/18 08:43:08;;;;;;;41.88;30.75;;;;;;;;;;5048950;28;20072;-67
2023/03/18 08:45:37;;;;;;;40.03;29.50;;;;;;;;;;5049310;28;20048;-68
2023/03/18 08:48:04;;;;;;;39.72;30.52;;;;;;;;;;5032807;28;20505;-68
2023/03/18 08:50:30;;;;;;;38.97;29.70;;;;;;;;;;5050275;28;20055;-68
2023/03/18 08:52:57;;;;;;;44.38;30.73;;;;;;;;;;5049930;28;20069;-68
2023/03/18 08:55:28;;;;;;;40.38;29.88;;;;;;;;;;5051241;28;20041;-67
2023/03/18 08:57:54;;;;;;;41.53;29.92;;;;;;;;;;5040844;28;20095;-68
2023/03/18 09:00:21;;;;;;;34.45;28.23;;;;;;;;;;5047658;28;20495;-67
2023/03/18 09:02:48;;;;;;;35.80;29.75;;;;;;;;;;5049816;28;20509;-68
2023/03/18 09:05:14;;;;;;;39.38;29.65;;;;;;;;;;5050390;28;20032;-68
2023/03/18 09:07:40;;;;;;;38.33;30.25;;;;;;;;;;5049062;28;20075;-68
2023/03/18 09:10:08;;;;;;;45.08;30.35;;;;;;;;;;5032503;28;20570;-68
2023/03/18 09:12:34;;;;;;;42.15;31.65;;;;;;;;;;5049777;28;20199;-67
2023/03/18 09:15:01;;;;;;;39.75;30.75;;;;;;;;;;5038390;28;20076;-67
2023/03/18 09:17:28;;;;;;;39.83;31.92;;;;;;;;;;5049338;28;20044;-68
2023/03/18 09:19:55;;;;;;;39.88;29.75;;;;;;;;;;5049461;28;20041;-67
2023/03/18 09:22:21;;;;;;;41.33;30.52;;;;;;;;;;5048987;28;20043;-68
2023/03/18 09:24:48;;;;;;;40.85;29.40;;;;;;;;;;5060951;28;20047;-68
2023/03/18 09:27:14;;;;;;;41.00;30.50;;;;;;;;;;5050498;28;20143;-68
2023/03/18 09:29:40;;;;;;;47.08;30.52;;;;;;;;;;5042378;28;20051;-67
2023/03/18 09:32:07;;;;;;;40.50;29.42;;;;;;;;;;5030983;28;20056;-67
2023/03/18 09:34:33;;;;;;;41.35;31.17;;;;;;;;;;5049223;28;20060;-68
2023/03/18 09:36:59;;;;;;;40.78;29.45;;;;;;;;;;5049068;28;20041;-67
2023/03/18 09:39:26;;;;;;;38.47;29.35;;;;;;;;;;5032137;28;20451;-68
2023/03/18 09:41:55;;;;;;;38.60;28.25;;;;;;;;;;5030613;28;20490;-68
2023/03/18 09:44:24;;;;;;;42.10;31.20;;;8.40;99.90;;;;;;5049169;28;20120;-68
2023/03/18 09:47:09;;;;;;;43.67;33.00;;;;;;;;;;5031342;28;20033;-67
2023/03/18 09:49:53;;;;;;;46.28;33.20;;;;;;;;;;5044569;28;20045;-68
2023/03/18 09:52:35;;;;;;;42.78;30.70;;;;;;;;;;5049985;28;20482;-67
2023/03/18 09:55:04;;;;;;;46.30;30.75;;;;;;;;;;5028908;28;20068;-67
2023/03/18 09:57:35;;;;;;;36.63;28.63;;;;;;;;;;5049111;28;20048;-68
2023/03/18 10:00:01;;;;;;;39.45;28.23;;;;;;;;;;5044893;28;20024;-67
2023/03/18 10:02:41;;;;;;;42.15;29.20;;;11.10;99.90;;;;;;5014733;28;20036;-67
2023/03/18 10:05:31;;;;;;;37.58;27.63;;;;;;;;;;5049468;28;20403;-67
2023/03/18 10:08:00;;;;;;;34.25;24.73;;;;;;;;;;5057449;28;20060;-67
2023/03/18 10:10:36;;;;;;;31.10;24.45;;;11.30;99.90;;;;;;5052534;28;20039;-67
2023/03/18 10:13:14;;;;;;;35.22;24.85;;;11.80;99.90;;;;;;5009143;28;20148;-67
2023/03/18 10:15:44;;;;;;;36.88;23.15;;;;;;;;;;5051969;28;20056;-67
2023/03/18 10:18:11;;;;;;;25.95;21.58;;;;;;;;;;5031315;28;20538;-67
2023/03/18 10:21:00;;;;;;;27.90;19.88;;;;;;;;;;5047003;28;20468;-67
2023/03/18 10:23:40;;;;;;;25.33;19.10;;;;;;;;;;5030221;28;20055;-68
2023/03/18 10:26:18;;;;;;;26.02;17.20;;;11.90;99.90;;;;;;5044083;28;20037;-67
2023/03/18 10:29:21;;;;;;;25.98;16.60;;;12.50;99.90;;;;;;5043333;28;20121;-67
2023/03/18 10:32:15;;;;;;;22.05;16.48;;;12.50;99.90;;;;;;5046097;28;20029;-67
2023/03/18 10:34:48;;;;;;;;;;;12.50;99.90;;;;;;5049892;28;20491;-67
2023/03/18 10:37:33;;;;;;;20.15;15.68;;;;;;;;;;5054191;28;20016;-67
2023/03/18 10:40:00;;;;;;;18.88;14.60;;;;;;;;;;5048501;28;20102;-68
2023/03/18 10:42:27;;;;;;;20.08;15.00;;;;;;;;;;5030649;28;20036;-67
2023/03/18 10:44:55;;;;;;;18.05;14.50;;;;;;;;;;5048199;28;20087;-67
2023/03/18 10:47:24;;;;;;;20.33;14.55;;;;;;;;;;5055964;28;20235;-67
2023/03/18 10:50:05;;;;;;;19.20;14.10;;;;;;;;;;5047494;28;20037;-67
2023/03/18 10:52:45;;;;;;;15.27;12.85;;;;;;;;;;5005948;28;20541;-67
2023/03/18 10:55:20;;;;;;;17.75;12.40;;;;;;;;;;5046841;28;20274;-67
2023/03/18 10:57:46;;;;;;;19.38;13.57;;;12.50;99.90;;;;;;5029677;28;20461;-67
2023/03/18 11:00:32;;;;;;;27.55;13.93;;;13.30;99.90;;;;;;5026379;28;20033;-67
2023/03/18 11:02:58;;;;;;;14.35;11.15;;;13.30;99.90;;;;;;5051366;28;20043;-67
2023/03/18 11:05:30;;;;;;;16.88;12.07;;;13.40;99.90;;;;;;5052084;28;20149;-67
2023/03/18 11:07:58;;;;;;;13.88;11.30;;;13.40;99.90;;;;;;5050864;28;20041;-68
2023/03/18 11:10:29;;;;;;;17.25;11.07;;;13.40;99.90;;;;;;5048305;28;20438;-68
2023/03/18 11:13:05;;;;;;;12.43;8.77;;;13.50;99.90;;;;;;5052583;28;20375;-68
2023/03/18 11:15:38;;;;;;;14.68;8.82;;;13.50;99.90;;;;;;5030867;28;20053;-67
2023/03/18 11:18:04;;;;;;;10.50;7.15;;;13.60;99.90;;;;;;5047108;28;20056;-67
2023/03/18 11:20:42;;;;;;;5.65;4.00;;;13.60;99.90;;;;;;5025429;28;20506;-68
2023/03/18 11:23:47;;;;;;;6.38;4.53;;;13.70;99.90;;;;;;5043191;28;20198;-68
2023/03/18 11:26:23;;;;;;;9.40;5.13;;;13.80;99.90;;;;;;5041501;28;20561;-68
2023/03/18 11:28:53;;;;;;;5.95;3.70;;;13.80;99.90;;;;;;5038523;28;20037;-67
2023/03/18 11:31:18;;;;;;;7.88;4.53;;;13.90;99.90;;;;;;5045920;28;20647;-68
2023/03/18 11:33:44;;;;;;;7.00;4.72;;;14.00;99.90;;;;;;5049383;28;20044;-68
2023/03/18 11:36:19;;;;;;;5.22;3.80;;;;;;;;;;5030087;28;20135;-68
2023/03/18 11:38:55;;;;;;;4.57;3.15;;;;;;;;;;5049800;28;20332;-68
2023/03/18 11:41:26;;;;;;;5.70;3.55;;;;;;;;;;5063142;28;20057;-67
2023/03/18 11:44:02;;;;;;;6.47;4.03;;;;;;;;;;5047764;28;20055;-67
2023/03/18 11:46:41;;;;;;;5.20;2.40;;;;;;;;;;5049773;28;20417;-68
2023/03/18 11:49:15;;;;;;;6.30;3.70;;;14.00;99.90;;;;;;5052593;28;20370;-69
2023/03/18 11:51:53;;;;;;;4.35;2.72;;;14.40;99.90;;;;;;5050976;28;20041;-68
2023/03/18 11:55:03;;;;;;;5.18;3.47;;;14.40;99.90;;;;;;5050413;28;20037;-68
2023/03/18 11:57:57;;;;;;;6.95;4.38;;;14.40;99.90;;;;;;5016181;28;20056;-68
2023/03/18 12:01:05;;;;;;;8.93;7.40;;;14.40;99.90;;;;;;5029333;28;20080;-68
2023/03/18 12:03:44;;;;;;;12.52;7.85;;;14.30;99.90;;;;;;5035728;28;20044;-68
2023/03/18 12:06:21;;;;;;;10.05;8.13;;;14.30;99.90;;;;;;5043111;28;20052;-67
2023/03/18 12:08:53;;;;;;;12.20;9.48;;;14.40;99.90;;;;;;5028384;28;20051;-67
2023/03/18 12:11:43;;;;;;;16.02;9.40;;;;;;;;;;5044821;28;20040;-67
2023/03/18 12:14:09;;;;;;;10.77;8.73;;;;;;;;;;5047165;28;20509;-67
2023/03/18 12:16:38;;;;;;;12.90;8.50;;;;;;;;;;5044967;28;20385;-67
2023/03/18 12:19:24;;;;;;;9.48;7.85;;;;;;;;;;5048558;28;20167;-68
2023/03/18 12:21:50;;;;;;;12.60;9.00;;;;;;;;;;5049442;28;20063;-68
2023/03/18 12:24:23;;;;;;;9.38;7.80;;;;;;;;;;5045016;28;20049;-68
2023/03/18 12:26:55;;;;;;;8.40;7.10;;;;;;;;;;5048918;28;20126;-68
2023/03/18 12:29:30;;;;;;;8.63;7.30;;;;;;;;;;5048127;28;20455;-68
2023/03/18 12:31:58;;;;;;;10.52;7.30;;;;;;;;;;5046532;28;20323;-67
2023/03/18 12:34:34;;;;;;;8.15;6.95;;;;;;;;;;5031281;28;20088;-68
2023/03/18 12:37:14;;;;;;;7.20;5.47;;;;;;;;;;5046102;28;20128;-67
2023/03/18 12:39:40;;;;;;;8.73;4.57;;;;;;;;;;5047979;28;20059;-67
2023/03/18 12:42:18;;;;;;;6.95;5.35;;;;;;;;;;5049777;28;20119;-67
2023/03/18 12:44:45;;;;;;;7.07;5.22;;;;;;;;;;5045211;28;20454;-67
2023/03/18 12:47:33;;;;;;;7.82;4.28;;;;;;;;;;5041868;28;20467;-68
2023/03/18 12:49:59;;;;;;;3.92;2.83;;;;;;;;;;5036980;28;20187;-68
2023/03/18 12:52:38;;;;;;;5.03;3.45;;;;;;;;;;5038733;28;20121;-68
2023/03/18 12:55:27;;;;;;;6.57;4.00;;;;;;;;;;5048686;28;20036;-67
2023/03/18 12:57:53;;;;;;;7.80;4.88;;;;;;;;;;5045899;28;20048;-67
2023/03/18 13:00:22;;;;;;;5.80;4.43;;;;;;;;;;5029814;28;20519;-67
2023/03/18 13:02:54;;;;;;;5.22;4.10;;;;;;;;;;5027967;28;20048;-67
2023/03/18 13:05:28;;;;;;;7.18;3.95;;;;;;;;;;5051254;28;20044;-68
2023/03/18 13:08:15;;;;;;;7.05;4.38;;;;;;;;;;5047525;28;20035;-68
2023/03/18 13:10:45;;;;;;;3.80;3.17;;;14.50;99.90;;;;;;5046625;28;20037;-68
2023/03/18 13:13:13;;;;;;;5.55;3.70;;;15.20;99.90;;;;;;5057734;28;20037;-68
2023/03/18 13:15:53;;;;;;;5.47;3.33;;;;;;;;;;5038176;28;20087;-68
2023/03/18 13:18:19;;;;;;;6.00;4.10;;;;;;;;;;5046750;28;20052;-68
2023/03/18 13:20:46;;;;;;;8.63;3.78;;;15.20;99.90;;;;;;5048863;28;20044;-68
2023/03/18 13:23:19;;;;;;;6.88;4.15;;;;;;;;;;5031920;28;20204;-68
2023/03/18 13:25:45;;;;;;;;;;;;;;;;;;5049341;28;20048;-68
2023/03/18 13:28:11;;;;;;;4.35;3.47;;;;;;;;;;5049777;28;20339;-68
2023/03/18 13:30:38;;;;;;;4.55;3.72;;;;;;;;;;5046338;28;20502;-68
2023/03/18 13:33:13;;;;;;;4.50;3.78;;;;;;;;;;5044645;28;20511;-68
2023/03/18 13:35:51;;;;;;;6.50;3.22;;;;;;;;;;5043687;28;20463;-68
2023/03/18 13:38:23;;;;;;;6.32;3.63;;;;;;;;;;5053099;28;20055;-66
2023/03/18 13:40:56;;;;;;;4.57;3.13;;;;;;;;;;5049545;28;20048;-67
2023/03/18 13:43:23;;;;;;;4.25;3.33;;;;;;;;;;5051857;28;20047;-67
2023/03/18 13:45:51;;;;;;;6.28;2.72;;;;;;;;;;5046502;28;20122;-67
2023/03/18 13:48:20;;;;;;;4.90;3.28;;;;;;;;;;5044774;28;20526;-67
2023/03/18 13:50:47;;;;;;;7.95;2.88;;;;;;;;;;5036551;28;20045;-67
2023/03/18 13:53:33;;;;;;;7.70;3.95;;;;;;;;;;5045430;28;20040;-68
2023/03/18 13:56:02;;;;;;;8.88;4.63;;;;;;;;;;5033475;28;20181;-65
2023/03/18 13:58:29;;;;;;;7.97;4.30;;;;;;;;;;5045404;28;20088;-66
2023/03/18 14:00:55;;;;;;;8.23;5.20;;;;;;;;;;5037831;28;20514;-66